Impacts METAR Board
IDs:

KCVG - Cincinnati Intl, KY, US

Updated at: 2200 UTC 19 Jun 2018
Potential Impact None Slight Moderate High
Time 19/10Z 19/11Z 19/12Z 19/13Z 19/14Z 19/15Z 19/16Z 19/17Z 19/18Z 19/19Z 19/20Z 19/21Z 19/22Z
Temp76 76 78 80 82 86 89 89 90 92 92 93 92
Dewpt71 71 70 71 71 72 72 72 71 70 69 68 67
Altim30.01 30.02 30.02 30.02 30.02 30.01 30.00 30.00 29.96 29.93 29.92 29.92 29.91
VIS10 8 9 10 10 10 10 10 10 10 10 10 10
CIG-- -- -- -- -- -- -- 38 -- -- -- -- --
CoverFEWFEWSCTSCTFEWSCTSCTBKNSCTSCTSCTSCTSCT
FltCatVFRVFRVFRVFRVFRVFRVFRVFRVFRVFRVFRVFRVFR
WX--------------------------
WDir230230270260250260270270240270260280270
WSpd5 4 6 8 7 9 10 9 9 14 13 14 13
WGst-- -- -- -- -- -- 16 -- -- 20 21 20 --
Raw hourly METARs
KCVG 190952Z 23005KT 10SM FEW250 24/22 A3001 RMK AO2 SLP149 T02440217 $
KCVG 191052Z 23004KT 8SM FEW035 24/22 A3002 RMK AO2 SLP152 MDT CU VC NE T02440217
KCVG 191152Z 27006KT 9SM SCT055 26/21 A3002 RMK AO2 SLP153 T02560211 10261 20239 51009
KCVG 191252Z 26008KT 10SM SCT047 SCT060 27/22 A3002 RMK AO2 SLP154 T02670217
KCVG 191352Z 25007KT 220V280 10SM FEW055 28/22 A3002 RMK AO2 SLP151 T02780217
KCVG 191452Z 26009KT 10SM FEW033 SCT049 30/22 A3001 RMK AO2 SLP150 T03000222 58004
KCVG 191552Z 27010G16KT 10SM FEW029 SCT048 32/22 A3000 RMK AO2 SLP147 MDT CU SW T03170222
KCVG 191652Z 27009KT 10SM FEW032 BKN038 32/22 A3000 RMK AO2 SLP145 MDT CU ALQDS T03170222
KCVG 191752Z 24009KT 10SM SCT037 32/22 A2996 RMK AO2 SLP133 CB DSNT NE T03220217 10328 20256 58016
KCVG 191852Z 27014G20KT 10SM SCT039 33/21 A2993 RMK AO2 SLP123 CB DSNT N-NE T03330211
KCVG 191952Z 26013G21KT 10SM SCT045 33/21 A2992 RMK AO2 SLP119 CB DSNT NE MDT CU E S T03330206
KCVG 192052Z 28014G20KT 10SM SCT049 34/20 A2992 RMK AO2 SLP119 MDT CU NE-SE T03390200 56014
KCVG 192152Z 27013KT 10SM FEW050 SCT230 33/19 A2991 RMK AO2 SLP117 MDT CU NE E-SE T03330194 $



Page loaded:  22:05 UTC  |   03:05 PM Pacific  |   04:05 PM Mountain  |   05:05 PM Central  |   06:05 PM Eastern

 

ADVISORIES

FORECASTS

FORECASTS

OBSERVATIONS

USER TOOLS

ABOUT US